Flight Track Log - Related Links

Times and Time Zones

All times are in EDT time to prevent confusion due to time zone crossing. See the JBU1251 flight status page for this flight to view local times or setup timezone preferences in your user account.

Time Position Orientation Groundspeed Altitude Reporting Facility
EDT Latitude Longitude Course Direction KTS MPH feet Rate Location/Type
Mon 06:33:02 AM 41.0833 -73.7333 246° West 138 159 1,600  Level New York TRACON
Mon 06:34:02 AM 41.1000 -73.7833 294° West 183 211 2,500 1,500 Climbing New York TRACON
Mon 06:35:02 AM 41.0833 -73.8667 255° West 238 274 4,600 2,421 Climbing New York TRACON
Mon 06:35:56 AM 41.0500 -73.9333 236° Southwest 274 315 7,100 1,842 Climbing New York TRACON
Mon 06:36:00 AM 40.7924 -74.2252 234° Southwest  Level FlightAware Approximate
Mon 06:36:56 AM 41.0000 -74.0000 225° Southwest 285 328 8,100  Level New York TRACON
Mon 06:37:00 AM 40.7285 -74.3596 237° Southwest  Level FlightAware Approximate
Mon 06:37:44 AM 40.9333 -74.0500 210° Southwest 298 343 9,500  Level New York TRACON
Mon 06:38:00 AM 40.6589 -74.4899 246° West  Level FlightAware Approximate
Mon 06:38:44 AM 40.8500 -74.0833 197° South 337 388 10,100  Level New York TRACON
Mon 06:39:44 AM 40.8000 -74.2000 241° Southwest 344 396 12,600 2,474 Climbing New York TRACON
Mon 06:40:38 AM 40.7500 -74.3000 237° Southwest 371 427 14,800 2,283 Climbing New York TRACON
Mon 06:41:37 AM 40.7017 -74.3981 237° Southwest 374 430 16,900 1,311 Climbing New York Center
Mon 06:42:37 AM 40.6419 -74.5125 236° Southwest 374 430 17,400 1,041 Climbing New York Center
Mon 06:43:38 AM 40.5847 -74.6106 232° Southwest 380 437 19,000 1,650 Climbing New York Center
Mon 06:44:37 AM 40.5164 -74.7186 230° Southwest 387 445 20,700 1,664 Climbing New York Center
Mon 06:45:37 AM 40.4481 -74.8292 231° Southwest 392 451 22,300 1,686 Climbing New York Center
Mon 06:46:38 AM 40.3664 -74.9606 231° Southwest 413 475 24,100 1,550 Climbing New York Center
Mon 06:47:37 AM 40.2933 -75.0786 231° Southwest 418 481 25,400 1,350 Climbing New York Center
Mon 06:48:38 AM 40.2178 -75.2017 231° Southwest 424 488 26,800 1,300 Climbing New York Center
Mon 06:49:37 AM 40.1425 -75.3217 231° Southwest 435 501 28,000 1,210 Climbing New York Center
Mon 06:50:37 AM 40.0625 -75.4467 230° Southwest 435 501 29,200 1,140 Climbing New York Center
Mon 06:51:38 AM 39.9867 -75.5689 231° Southwest 440 506 30,300 1,200 Climbing New York Center
Mon 06:52:37 AM 39.9089 -75.6908 230° Southwest 440 506 31,600 1,311 Climbing New York Center
Mon 06:53:37 AM 39.8325 -75.8153 231° Southwest 440 506 32,900 1,150 Climbing New York Center
Mon 06:54:37 AM 39.7567 -75.9342 230° Southwest 440 506 33,900 926 Climbing New York Center
Mon 06:56:19 AM 39.6394 -76.1169 230° Southwest 411 473 35,400 778 Climbing Washington Center
Mon 06:57:19 AM 39.5681 -76.2322 231° Southwest 416 479 36,000 298 Climbing Washington Center
Mon 06:58:20 AM 39.4883 -76.3497 229° Southwest 426 490 36,000  Level Washington Center
Mon 06:59:20 AM 39.4125 -76.4725 231° Southwest 436 502 36,000  Level Washington Center
Mon 07:00:18 AM 39.3303 -76.5950 229° Southwest 444 511 36,000  Level Washington Center
Mon 07:01:18 AM 39.2519 -76.7200 231° Southwest 449 517 36,000  Level Washington Center
Mon 07:02:19 AM 39.1717 -76.8444 230° Southwest 449 517 36,000  Level Washington Center
Mon 07:03:20 AM 39.0931 -76.9661 230° Southwest 449 517 36,000  Level Washington Center
Mon 07:04:18 AM 39.0083 -77.0794 226° Southwest 449 517 36,000  Level Washington Center
Mon 07:05:19 AM 38.9133 -77.1844 221° Southwest 449 517 36,000  Level Washington Center
Mon 07:06:19 AM 38.8181 -77.2861 220° Southwest 454 522 36,000  Level Washington Center
Mon 07:07:19 AM 38.7206 -77.3903 220° Southwest 454 522 36,000  Level Washington Center
Mon 07:08:19 AM 38.6253 -77.4944 221° Southwest 454 522 36,000  Level Washington Center
Mon 07:09:18 AM 38.5319 -77.5981 221° Southwest 454 522 36,000  Level Washington Center
Mon 07:10:18 AM 38.4364 -77.6989 220° Southwest 454 522 36,000  Level Washington Center
Mon 07:11:18 AM 38.3383 -77.8072 221° Southwest 459 528 36,000  Level Washington Center
Mon 07:12:19 AM 38.2406 -77.9103 220° Southwest 465 535 36,000  Level Washington Center
Mon 07:13:19 AM 38.1342 -78.0231 220° Southwest 465 535 36,000  Level Washington Center
Mon 07:14:20 AM 38.0381 -78.1281 221° Southwest 465 535 36,000  Level Washington Center
Mon 07:15:18 AM 37.9400 -78.2247 218° Southwest 465 535 36,000  Level Washington Center
Mon 07:16:19 AM 37.8397 -78.3211 217° Southwest 460 529 36,000  Level Washington Center
Mon 07:17:20 AM 37.7353 -78.4172 216° Southwest 460 529 36,000  Level Washington Center
Mon 07:18:20 AM 37.6331 -78.5131 217° Southwest 466 536 36,000  Level Washington Center
Mon 07:19:19 AM 37.5325 -78.6089 217° Southwest 466 536 36,000  Level Washington Center
Mon 07:20:17 AM 37.4322 -78.7042 217° Southwest 461 531 36,000  Level Washington Center
Mon 07:21:17 AM 37.3294 -78.7992 216° Southwest 467 537 36,000  Level Washington Center
Mon 07:22:18 AM 37.2267 -78.8942 216° Southwest 467 537 36,000  Level Washington Center
Mon 07:23:19 AM 37.1217 -78.9939 217° Southwest 467 537 36,000  Level Washington Center
Mon 07:24:20 AM 37.0208 -79.0908 218° Southwest 467 537 36,000  Level Washington Center
Mon 07:25:18 AM 36.9158 -79.1847 216° Southwest 467 537 36,000  Level Washington Center
Mon 07:26:19 AM 36.8256 -79.2714 218° Southwest 467 537 36,000  Level Washington Center
Mon 07:27:19 AM 36.7139 -79.3722 216° Southwest 467 537 36,000  Level Washington Center
Mon 07:28:20 AM 36.6108 -79.4656 216° Southwest 467 537 36,000  Level Washington Center
Mon 07:29:18 AM 36.5094 -79.5639 218° Southwest 472 543 36,000  Level Washington Center
Mon 07:30:51 AM 36.3469 -79.7108 216° Southwest 501 577 36,000  Level Atlanta Center
Mon 07:31:51 AM 36.2458 -79.7986 215° Southwest 473 544 36,000  Level Atlanta Center
Mon 07:32:51 AM 36.1447 -79.8914 217° Southwest 468 539 36,000  Level Atlanta Center
Mon 07:33:51 AM 36.0514 -79.9681 214° Southwest 457 526 36,000  Level Atlanta Center
Mon 07:34:51 AM 35.9364 -80.0303 204° Southwest 451 519 36,000  Level Atlanta Center
Mon 07:35:51 AM 35.8175 -80.0925 203° Southwest 458 527 36,000  Level Atlanta Center
Mon 07:36:51 AM 35.6983 -80.1519 202° Southwest 463 533 36,000  Level Atlanta Center
Mon 07:37:51 AM 35.5814 -80.2111 202° Southwest 463 533 36,000  Level Atlanta Center
Mon 07:38:51 AM 35.4600 -80.2703 202° Southwest 469 540 36,000  Level Atlanta Center
Mon 07:39:51 AM 35.3431 -80.3317 203° Southwest 469 540 36,000  Level Atlanta Center
Mon 07:40:51 AM 35.2258 -80.3878 201° Southwest 469 540 36,000  Level Atlanta Center
Mon 07:44:21 AM 34.7983 -80.6019 202° Southwest 466 536 36,000  Level Jacksonville Center
Mon 07:45:21 AM 34.6783 -80.6608 202° Southwest 452 520 36,000  Level Jacksonville Center
Mon 07:46:21 AM 34.5522 -80.7219 202° Southwest 470 541 36,000  Level Jacksonville Center
Mon 07:47:21 AM 34.4342 -80.7778 201° Southwest 470 541 36,000  Level Jacksonville Center
Mon 07:48:21 AM 34.3164 -80.8411 204° Southwest 470 541 36,000  Level Jacksonville Center
Mon 07:49:21 AM 34.2003 -80.8942 201° Southwest 460 529 36,000  Level Jacksonville Center
Mon 07:50:21 AM 34.0822 -80.9494 201° Southwest 460 529 36,000  Level Jacksonville Center
Mon 07:51:21 AM 33.9622 -81.0097 203° Southwest 465 535 36,000  Level Jacksonville Center
Mon 07:52:21 AM 33.8625 -81.0517 199° South 465 535 36,000  Level Jacksonville Center
Mon 07:53:21 AM 33.7197 -81.1247 203° Southwest 470 541 36,000  Level Jacksonville Center
Mon 07:54:21 AM 33.6119 -81.1792 203° Southwest 476 548 36,000  Level Jacksonville Center
Mon 07:55:21 AM 33.4917 -81.2364 202° Southwest 476 548 36,000  Level Jacksonville Center
Mon 07:56:21 AM 33.3736 -81.2983 204° Southwest 476 548 36,000  Level Jacksonville Center
Mon 07:57:21 AM 33.2511 -81.3550 201° Southwest 476 548 36,000  Level Jacksonville Center
Mon 07:58:21 AM 33.1306 -81.4142 202° Southwest 476 548 36,000  Level Jacksonville Center
Mon 07:59:21 AM 33.0083 -81.4731 202° Southwest 476 548 36,000  Level Jacksonville Center
Mon 08:00:21 AM 32.8878 -81.5319 202° Southwest 476 548 36,000  Level Jacksonville Center
Mon 08:01:21 AM 32.7694 -81.5881 202° Southwest 471 542 36,000  Level Jacksonville Center
Mon 08:02:21 AM 32.6386 -81.6542 203° Southwest 466 536 36,000  Level Jacksonville Center
Mon 08:03:21 AM 32.5139 -81.7125 202° Southwest 475 547 36,000  Level Jacksonville Center
Mon 08:04:21 AM 32.3933 -81.7706 202° Southwest 475 547 36,000  Level Jacksonville Center
Mon 08:05:21 AM 32.2767 -81.7992 192° South 470 541 36,000  Level Jacksonville Center
Mon 08:06:21 AM 32.1306 -81.8206 187° South 475 547 36,000  Level Jacksonville Center
Mon 08:07:21 AM 31.9994 -81.8442 189° South 482 555 36,000  Level Jacksonville Center
Mon 08:08:21 AM 31.8681 -81.8650 188° South 482 555 36,000  Level Jacksonville Center
Mon 08:09:21 AM 31.7344 -81.8861 188° South 482 555 36,000  Level Jacksonville Center
Mon 08:10:21 AM 31.6156 -81.9069 188° South 482 555 36,000  Level Jacksonville Center
Mon 08:11:21 AM 31.4675 -81.9306 188° South 482 555 36,000  Level Jacksonville Center
Mon 08:12:21 AM 31.3467 -81.9511 188° South 487 560 36,000  Level Jacksonville Center
Mon 08:13:21 AM 31.2153 -81.9694 187° South 487 560 36,000  Level Jacksonville Center
Mon 08:14:21 AM 31.0819 -81.9925 188° South 487 560 36,000  Level Jacksonville Center
Mon 08:15:21 AM 30.9483 -82.0133 188° South 487 560 36,000  Level Jacksonville Center
Mon 08:16:21 AM 30.8147 -82.0364 188° South 482 555 36,000  Level Jacksonville Center
Mon 08:17:21 AM 30.6833 -82.0567 188° South 482 555 36,000  Level Jacksonville Center
Mon 08:18:21 AM 30.5417 -82.0725 185° South 476 548 36,000 -200 Level Jacksonville Center
Mon 08:19:21 AM 30.4103 -82.0953 189° South 483 556 35,600 -500 Descending Jacksonville Center
Mon 08:20:21 AM 30.2831 -82.1156 188° South 483 556 35,000 -300 Descending Jacksonville Center
Mon 08:21:21 AM 30.1514 -82.1264 184° South 478 550 35,000  Level Jacksonville Center
Mon 08:22:21 AM 30.0219 -82.0986 169° South 464 534 35,000  Level Jacksonville Center
Mon 08:23:21 AM 29.8922 -82.0781 172° South 474 545 35,000  Level Jacksonville Center
Mon 08:24:21 AM 29.7647 -82.0503 169° South 474 545 35,000  Level Jacksonville Center
Mon 08:25:21 AM 29.6311 -82.0253 171° South 479 551 35,000  Level Jacksonville Center
Mon 08:26:21 AM 29.5014 -82.0003 170° South 479 551 35,000  Level Jacksonville Center
Mon 08:27:21 AM 29.3697 -81.9728 170° South 484 557 35,000 -66 Level Jacksonville Center
Mon 08:29:24 AM 29.1078 -81.9186 170° South 479 551 34,800 -389 Descending Miami Center
Mon 08:30:26 AM 28.9750 -81.8931 170° South 479 551 33,800 -1,512 Descending Miami Center
Mon 08:31:27 AM 28.8439 -81.8658 170° South 480 552 31,700 -2,146 Descending Miami Center
Mon 08:32:29 AM 28.7131 -81.8397 170° South 479 551 29,400 -2,244 Descending Miami Center
Mon 08:33:30 AM 28.5842 -81.8147 170° South 477 549 27,100 -1,171 Descending Miami Center
Mon 08:34:32 AM 28.4581 -81.7814 167° South 466 536 27,000 -339 Descending Miami Center
Mon 08:35:34 AM 28.3131 -81.7392 166° South 464 534 26,400 -1,122 Descending Miami Center
Mon 08:36:35 AM 28.1953 -81.7058 166° South 442 509 24,700 -1,951 Descending Miami Center
Mon 08:37:37 AM 28.0817 -81.6742 166° South 425 489 22,400 -2,195 Descending Miami Center
Mon 08:38:38 AM 27.9678 -81.6722 179° South 414 476 20,200 -1,610 Descending Miami Center
Mon 08:39:40 AM 27.8589 -81.6494 170° South 404 465 19,100 -1,210 Descending Miami Center
Mon 08:40:42 AM 27.7381 -81.6261 170° South 403 464 17,700 -1,210 Descending Miami Center
Mon 08:41:44 AM 27.6311 -81.6050 170° South 392 451 16,600 -1,073 Descending Miami Center
Mon 08:42:45 AM 27.5250 -81.5839 170° South 386 444 15,500 -1,073 Descending Miami Center
Mon 08:43:47 AM 27.4214 -81.5639 170° South 379 436 14,400 -1,065 Descending Miami Center
Mon 08:44:49 AM 27.3200 -81.5433 170° South 369 425 13,300 -1,161 Descending Miami Center
Mon 08:45:51 AM 27.2000 -81.5194 170° South 366 421 12,000 -1,161 Descending Miami Center
Mon 08:46:53 AM 27.1031 -81.5006 170° South 355 409 10,900 -976 Descending Miami Center
Mon 08:47:54 AM 27.0011 -81.4781 169° South 356 410 10,000 -488 Descending Miami Center
Mon 08:48:56 AM 26.9083 -81.4325 156° South 337 388 9,900 -581 Descending Miami Center
Mon 08:49:58 AM 26.8333 -81.3950 156° South 302 348 8,800 -1,065 Descending Miami Center
Mon 08:51:00 AM 26.7481 -81.3889 176° South 292 336 7,700 -1,024 Descending Miami Center
Mon 08:52:01 AM 26.6694 -81.4019 188° South 289 333 6,700 -976 Descending Miami Center
Mon 08:53:03 AM 26.6186 -81.4703 230° Southwest 290 334 5,700 -1,016 Descending Miami Center
Mon 08:54:05 AM 26.5692 -81.5464 234° Southwest 282 325 4,600 -823 Descending Miami Center
Mon 08:55:07 AM 26.5236 -81.6158 234° Southwest 282 325 4,000 -293 Descending Miami Center
Mon 08:56:08 AM 26.4742 -81.6917 234° Southwest 281 323 4,000  Level Miami Center
Mon 08:57:10 AM 26.4333 -81.7522 233° Southwest 237 273 4,000  Level Miami Center
Mon 08:58:12 AM 26.3983 -81.8092 236° Southwest 227 261 4,000  Level Miami Center
Mon 08:59:14 AM 26.3603 -81.8703 235° Southwest 227 261 4,000 -484 Level Miami Center
Mon 09:00:16 AM 26.4003 -81.8992 327° Northwest 197 227 3,000 -585 Descending Miami Center
Mon 09:01:17 AM 26.4517 -81.8828 16° North 188 216 2,800 -683 Descending Miami Center
Mon 09:02:19 AM 26.4786 -81.8439 52° Northeast 163 188 1,600 -968 Descending Miami Center
Mon 09:03:21 AM 26.5025 -81.8069 54° Northeast 141 162 800 -677 Descending Miami Center
Mon 09:04:23 AM 26.5236 -81.7750 54° Northeast 134 154 200 -581 Descending Miami Center
Mon 09:06:00 AM 26.5333 -81.7500 17° North  Level FlightAware Approximate

Login

Don't have an account? Register now (free) for customized features, flight alerts, and more!